Time;durP1;ratioP1;P1;durP2;ratioP2;P2;SDS_P1;SDS_P2;PMS_P1;PMS_P2;Temp;Humidity;BMP_temperature;BMP_pressure;BME280_temperature;BME280_humidity;BME280_pressure;Samples;Min_cycle;Max_cycle;Signal;HPM_P1;HPM_P2
2022/11/06 00:00:15;;;;;;;14.65;5.18;;;;;;;7.32;99.19;100975.16;4897376;29;20163;-76
2022/11/06 00:02:42;;;;;;;16.83;5.90;;;;;;;7.30;99.30;100978.84;4901840;29;20450;-76
2022/11/06 00:07:53;;;;;;;17.10;7.53;;;;;;;7.25;99.34;100973.19;4903454;29;20063;-75
2022/11/06 00:10:21;;;;;;;13.60;6.03;;;;;;;7.24;99.49;100974.13;4900624;29;20136;-77
2022/11/06 00:12:48;;;;;;;15.57;6.80;;;;;;;7.25;99.46;100979.22;4886416;29;20091;-76
2022/11/06 00:15:15;;;;;;;22.42;8.32;;;;;;;7.27;99.36;100979.09;4896011;29;20099;-77
2022/11/06 00:17:42;;;;;;;13.82;5.80;;;;;;;7.32;99.06;100976.94;4896251;29;20463;-77
2022/11/06 00:20:09;;;;;;;14.10;5.55;;;;;;;7.33;98.64;100983.78;4894793;29;20148;-77
2022/11/06 00:22:37;;;;;;;14.00;5.68;;;;;;;7.28;98.78;100973.75;4895005;29;20056;-78
2022/11/06 00:25:05;;;;;;;10.02;5.78;;;;;;;7.23;98.83;100973.31;4896064;29;20487;-77
2022/11/06 00:27:36;;;;;;;10.05;5.97;;;;;;;7.18;99.01;100978.06;4896386;29;20056;-78
2022/11/06 00:30:02;;;;;;;10.27;6.22;;;;;;;7.21;99.17;100975.19;4894051;29;20048;-78
2022/11/06 00:32:29;;;;;;;10.55;5.88;;;;;;;7.24;98.99;100971.53;4894312;29;20140;-77
2022/11/06 00:34:55;;;;;;;10.48;6.15;;;;;;;7.18;99.09;100970.25;4895991;29;20084;-77
2022/11/06 00:37:22;;;;;;;9.70;6.38;;;;;;;7.10;99.28;100970.03;4896677;29;20412;-76
2022/11/06 00:39:49;;;;;;;9.55;5.57;;;;;;;7.13;99.25;100968.97;4895690;29;20514;-78
2022/11/06 00:42:15;;;;;;;9.15;6.18;;;;;;;7.09;99.50;100967.59;4896492;29;20168;-78
2022/11/06 00:44:43;;;;;;;12.65;6.30;;;;;;;7.01;99.78;100977.81;4897624;29;20479;-77
2022/11/06 00:47:10;;;;;;;10.85;6.40;;;;;;;7.08;99.88;100971.97;4896268;29;20135;-78
2022/11/06 00:49:37;;;;;;;15.43;5.65;;;;;;;7.00;99.71;100974.38;4895580;29;20399;-77
2022/11/06 00:52:04;;;;;;;14.80;5.88;;;;;;;7.01;99.95;100977.81;4896072;29;20079;-78
2022/11/06 00:54:30;;;;;;;10.85;5.47;;;;;;;7.10;99.94;100979.63;4895924;29;20044;-76
2022/11/06 00:56:57;;;;;;;8.65;5.28;;;;;;;7.16;99.44;100979.97;4896080;29;20083;-77
2022/11/06 00:59:24;;;;;;;7.95;5.32;;;;;;;7.18;99.17;100978.06;4895315;29;20052;-78
2022/11/06 01:01:51;;;;;;;15.23;5.40;;;;;;;7.20;98.95;100955.34;4895714;29;20111;-78
2022/11/06 01:04:20;;;;;;;11.07;5.72;;;;;;;7.18;98.78;100966.81;4895843;29;20135;-78
2022/11/06 01:06:49;;;;;;;12.55;5.30;;;;;;;7.23;98.80;100972.47;4895639;29;20131;-77
2022/11/06 01:09:18;;;;;;;10.15;5.07;;;;;;;7.22;98.58;100974.25;4895826;29;20147;-76
2022/11/06 01:11:47;;;;;;;11.68;5.40;;;;;;;7.17;98.69;100965.16;4896252;29;20056;-77
2022/11/06 01:14:15;;;;;;;8.98;4.90;;;;;;;7.26;98.38;100967.03;4896147;29;20076;-77
2022/11/06 01:16:42;;;;;;;9.82;5.18;;;;;;;7.30;98.10;100955.41;4895804;29;20095;-77
2022/11/06 01:19:11;;;;;;;11.93;5.55;;;;;;;7.32;97.75;100948.28;4895494;29;20587;-78
2022/11/06 01:21:41;;;;;;;10.18;5.20;;;;;;;7.27;98.05;100950.44;4896213;29;20084;-78
2022/11/06 01:24:10;;;;;;;12.07;5.40;;;;;;;7.16;98.62;100948.72;4895841;29;20127;-77
2022/11/06 01:26:37;;;;;;;12.35;5.32;;;;;;;7.16;98.32;100940.91;4896020;29;20080;-78
2022/11/06 01:29:06;;;;;;;13.85;5.57;;;;;;;7.23;98.34;100928.22;4895673;29;20135;-79
2022/11/06 01:31:34;;;;;;;9.57;4.93;;;;;;;7.20;98.15;100938.88;4895162;29;20052;-79
2022/11/06 01:34:02;;;;;;;11.85;5.00;;;;;;;7.23;98.32;100938.63;4897363;29;20045;-78
2022/11/06 01:36:30;;;;;;;13.63;5.78;;;;;;;7.18;98.29;100919.97;4895927;29;20137;-77
2022/11/06 01:39:00;;;;;;;9.45;5.43;;;;;;;7.11;98.58;100918.81;4895239;29;20149;-76
2022/11/06 01:41:29;;;;;;;13.75;5.25;;;;;;;7.07;99.31;100912.25;4895649;29;20147;-75
2022/11/06 01:43:57;;;;;;;11.48;5.40;;;;;;;7.12;98.99;100925.69;4895351;29;20575;-76
2022/11/06 01:46:25;;;;;;;16.83;5.35;;;;;;;7.02;99.00;100914.41;4895772;29;20143;-78
2022/11/06 01:48:55;;;;;;;11.07;5.40;;;;;;;7.05;98.99;100924.56;4894887;29;20140;-77
2022/11/06 01:51:24;;;;;;;10.80;4.90;;;;;;;7.03;98.91;100909.06;4896103;29;20056;-75
2022/11/06 01:53:53;;;;;;;9.15;5.00;;;;;;;7.02;98.97;100914.41;4895721;29;20048;-77
2022/11/06 01:56:22;;;;;;;7.30;5.38;;;;;;;6.95;99.10;100907.09;4895506;29;20139;-77
2022/11/06 01:58:52;;;;;;;8.95;5.30;;;;;;;6.90;99.54;100901.44;4895212;29;20072;-76
2022/11/06 02:01:19;;;;;;;7.72;4.93;;;;;;;6.89;99.61;100910.19;4895793;29;20057;-77
2022/11/06 02:03:52;;;;;;;8.00;4.80;;;;;;;6.88;99.64;100902.53;4895881;29;20052;-77
2022/11/06 02:06:19;;;;;;;13.75;4.78;;;;;;;6.93;99.46;100911.59;4896152;29;20131;-77
2022/11/06 02:08:46;;;;;;;10.25;4.95;;;;;;;6.92;99.39;100903.91;4894683;29;20071;-77
2022/11/06 02:11:14;;;;;;;15.80;4.75;;;;;;;6.94;99.55;100899.41;4928419;23;20043;-79
2022/11/06 02:13:56;;;;;;;10.13;4.55;;;;;;;6.88;99.21;100911.16;4940464;29;20059;-79
2022/11/06 02:16:30;;;;;;;11.95;5.07;;;;;;;6.80;99.57;100904.91;4946365;29;20090;-79
2022/11/06 02:19:15;;;;;;;10.07;5.40;;;;;;;6.84;99.99;100907.16;4948456;29;20075;-80
2022/11/06 02:22:25;;;;;;;9.02;4.72;;;;;;;6.77;99.95;100905.16;4951753;29;20051;-79
2022/11/06 02:25:14;;;;;;;10.35;4.70;;;;;;;6.81;100.00;100902.19;4918871;29;20091;-79
2022/11/06 02:27:45;;;;;;;9.27;4.95;;;;;;;6.88;99.67;100905.94;4931599;29;20215;-80
2022/11/06 02:30:14;;;;;;;13.85;5.10;;;;;;;6.91;99.48;100918.72;4932124;29;20087;-80
2022/11/06 02:32:46;;;;;;;9.18;4.68;;;;;;;6.98;98.96;100906.03;4950162;29;20048;-80
2022/11/06 02:35:26;;;;;;;8.40;4.80;;;;;;;7.06;98.46;100910.59;4950643;29;20071;-79
2022/11/06 02:37:58;;;;;;;10.30;4.65;;;;;;;6.97;98.42;100905.19;4945693;29;20131;-80
2022/11/06 02:40:32;;;;;;;9.07;4.95;;;;;;;6.91;98.62;100897.06;4929042;29;20059;-81
2022/11/06 02:43:04;;;;;;;9.77;4.45;;;;;;;6.87;98.84;100896.50;4928369;29;20056;-80
2022/11/06 02:45:36;;;;;;;10.48;4.63;;;;;;;6.88;98.74;100902.53;4931211;29;20052;-80
2022/11/06 02:48:05;;;;;;;11.95;4.88;;;;;;;6.89;98.90;100886.78;4947072;29;20075;-79
2022/11/06 02:50:35;;;;;;;12.05;4.68;;;;;;;6.94;98.54;100876.84;4948619;29;20062;-79
2022/11/06 02:53:05;;;;;;;11.27;4.90;;;;;;;6.98;98.46;100873.03;4947287;29;20166;-79
2022/11/06 02:55:35;;;;;;;11.00;4.93;;;;;;;7.05;98.62;100880.34;4948795;29;20052;-79
2022/11/06 02:58:10;;;;;;;9.98;4.55;;;;;;;6.99;98.18;100882.47;4947331;29;20410;-79
2022/11/06 03:00:39;;;;;;;11.43;5.20;;;;;;;6.97;98.18;100878.34;4943170;29;20143;-79
2022/11/06 03:03:09;;;;;;;16.45;5.53;;;;;;;7.06;98.16;100874.19;4927758;29;20056;-79
2022/11/06 03:05:40;;;;;;;9.75;5.47;;;;;;;7.02;97.96;100877.97;4928164;29;20496;-79
2022/11/06 03:08:14;;;;;;;10.13;4.85;;;;;;;7.01;97.92;100874.56;4938180;29;20079;-78
2022/11/06 03:10:44;;;;;;;10.73;4.80;;;;;;;7.02;98.22;100870.19;4946772;29;20051;-79
2022/11/06 03:13:19;;;;;;;11.20;5.20;;;;;;;6.96;98.10;100872.31;4945514;29;20059;-79
2022/11/06 03:15:52;;;;;;;7.78;4.75;;;;;;;6.99;98.10;100872.06;4944405;29;20087;-78
2022/11/06 03:18:29;;;;;;;8.10;5.18;;;;;;;6.97;98.09;100854.94;4945577;29;20419;-78
2022/11/06 03:21:00;;;;;;;15.50;5.63;;;;;;;6.99;98.33;100858.25;4946225;29;20168;-79
2022/11/06 03:23:32;;;;;;;11.30;5.10;;;;;;;6.94;98.47;100853.41;4933955;29;20520;-79
2022/11/06 03:26:09;;;;;;;9.15;4.60;;;;;;;6.87;98.69;100859.25;4926709;29;20052;-79
2022/11/06 03:28:40;;;;;;;8.52;4.30;;;;;;;6.79;98.99;100864.25;4926730;29;20155;-79
2022/11/06 03:31:12;;;;;;;10.80;5.03;;;;;;;6.79;99.26;100866.84;4935358;29;20085;-78
2022/11/06 03:33:46;;;;;;;9.60;4.60;;;;;;;6.71;99.74;100867.47;4947444;29;20079;-78
2022/11/06 03:36:18;;;;;;;7.75;4.65;;;;;;;6.73;100.00;100883.78;4947264;29;20086;-78
2022/11/06 03:38:48;;;;;;;13.25;5.03;;;;;;;6.68;100.00;100885.09;4934079;29;20083;-78
2022/11/06 03:41:22;;;;;;;10.27;4.93;;;;;;;6.65;100.00;100887.00;4928536;29;20091;-78
2022/11/06 03:43:54;;;;;;;9.32;4.80;;;;;;;6.62;100.00;100894.22;4927110;29;20573;-78
2022/11/06 03:46:24;;;;;;;9.82;4.95;;;;;;;6.59;100.00;100904.91;4938972;29;20059;-78
2022/11/06 03:48:54;;;;;;;10.38;4.60;;;;;;;6.58;100.00;100891.06;4943493;29;20062;-77
2022/11/06 03:51:24;;;;;;;12.10;4.93;;;;;;;6.54;100.00;100888.84;4941653;29;20078;-78
2022/11/06 03:53:56;;;;;;;8.70;5.03;;;;;;;6.54;100.00;100883.66;4934268;29;20440;-79
2022/11/06 03:56:29;;;;;;;10.18;4.75;;;;;;;6.47;100.00;100882.47;4927510;29;20567;-79
2022/11/06 03:59:02;;;;;;;8.00;4.57;;;;;;;6.46;100.00;100891.22;4926674;29;20076;-79
2022/11/06 04:01:34;;;;;;;8.45;4.57;;;;;;;6.47;100.00;100883.31;4940232;29;20488;-78
2022/11/06 04:04:05;;;;;;;8.60;4.47;;;;;;;6.50;100.00;100877.88;4947438;29;20048;-78
2022/11/06 04:06:38;;;;;;;10.68;4.55;;;;;;;6.48;100.00;100874.56;4945040;29;20079;-78
2022/11/06 04:14:43;;;;;;;11.93;4.32;;;;;;;6.51;100.00;100879.50;4927890;29;20087;-79
2022/11/06 04:17:13;;;;;;;13.60;4.70;;;;;;;6.44;100.00;100883.56;4945885;29;20064;-79
2022/11/06 04:19:47;;;;;;;8.23;4.50;;;;;;;6.45;100.00;100881.78;4950227;29;20103;-79
2022/11/06 04:22:44;;;;;;;9.52;4.88;;;;;;;6.49;100.00;100875.38;4945600;29;20120;-79
2022/11/06 04:28:17;;;;;;;11.88;4.68;;;;;;;6.40;100.00;100870.91;4931287;29;20107;-78
2022/11/06 04:30:55;;;;;;;10.05;5.18;;;;;;;6.35;100.00;100863.50;4931933;29;20071;-79
2022/11/06 04:33:27;;;;;;;7.50;4.53;;;;;;;6.37;100.00;100869.41;4945262;29;20091;-79
2022/11/06 04:36:02;;;;;;;10.63;4.65;;;;;;;6.35;100.00;100870.47;4945736;29;20558;-79
2022/11/06 04:38:39;;;;;;;7.45;4.72;;;;;;;6.32;100.00;100859.38;4941778;29;20067;-78
2022/11/06 04:41:15;;;;;;;10.60;4.70;;;;;;;6.35;100.00;100860.06;4927668;29;20135;-79
2022/11/06 04:43:46;;;;;;;12.15;4.75;;;;;;;6.36;100.00;100859.13;4925865;29;20088;-78
2022/11/06 04:46:19;;;;;;;6.35;4.57;;;;;;;6.31;100.00;100852.50;4925805;29;20079;-80
2022/11/06 04:48:47;;;;;;;9.55;4.57;;;;;;;6.31;100.00;100847.31;4925694;29;20115;-80
2022/11/06 04:51:15;;;;;;;12.38;4.38;;;;;;;6.38;100.00;100846.81;4925127;29;20582;-79
2022/11/06 04:53:43;;;;;;;7.22;4.25;;;;;;;6.35;100.00;100839.28;4925991;29;20112;-80
2022/11/06 04:56:12;;;;;;;8.95;4.45;;;;;;;6.37;100.00;100834.78;4925551;29;20048;-80
2022/11/06 04:58:38;;;;;;;13.05;5.65;;;;;;;6.44;100.00;100830.75;4924594;29;20259;-79
2022/11/06 05:01:05;;;;;;;11.45;4.47;;;;;;;6.46;100.00;100823.66;4933146;29;20135;-81
2022/11/06 05:03:33;;;;;;;10.60;4.63;;;;;;;6.47;100.00;100820.09;4944757;29;20079;-80
2022/11/06 05:06:09;;;;;;;9.00;4.55;;;;;;;6.45;100.00;100816.78;4944320;29;20083;-80
2022/11/06 05:08:35;;;;;;;12.73;4.32;;;;;;;6.47;100.00;100815.72;4943898;29;20063;-79
2022/11/06 05:11:02;;;;;;;7.72;4.10;;;;;;;6.49;100.00;100807.78;4926096;29;20048;-79
2022/11/06 05:13:28;;;;;;;12.82;6.30;;;;;;;6.56;100.00;100798.56;4926444;29;20088;-79
2022/11/06 05:15:56;;;;;;;7.82;4.18;;;;;;;6.55;100.00;100783.91;4932212;29;20050;-79
2022/11/06 05:18:27;;;;;;;12.05;4.13;;;;;;;6.52;100.00;100792.78;4943859;29;20082;-80
2022/11/06 05:23:37;;;;;;;11.63;4.65;;;;;;;6.55;100.00;100784.72;4943500;29;20066;-79
2022/11/06 05:26:03;;;;;;;8.80;3.95;;;;;;;6.59;100.00;100783.53;4925964;29;20052;-80
2022/11/06 05:28:30;;;;;;;9.27;4.70;;;;;;;6.59;100.00;100786.13;4927026;29;20052;-81
2022/11/06 05:30:57;;;;;;;8.50;4.30;;;;;;;6.58;100.00;100774.06;4933149;29;20060;-80
2022/11/06 05:33:23;;;;;;;11.68;4.70;;;;;;;6.59;100.00;100765.31;4945587;29;20052;-80
2022/11/06 05:35:50;;;;;;;10.05;4.65;;;;;;;6.55;100.00;100770.91;4944437;29;20079;-80
2022/11/06 05:38:19;;;;;;;10.30;4.32;;;;;;;6.51;100.00;100779.91;4943360;29;20087;-80
2022/11/06 05:40:46;;;;;;;7.18;4.30;;;;;;;6.45;100.00;100770.00;4927386;29;20082;-80
2022/11/06 05:43:12;;;;;;;8.23;3.90;;;;;;;6.44;100.00;100768.34;4926266;29;20044;-79
2022/11/06 05:45:39;;;;;;;15.60;4.80;;;;;;;6.40;100.00;100767.78;4925062;29;20071;-79
2022/11/06 05:48:06;;;;;;;8.98;4.05;;;;;;;6.40;100.00;100761.75;4926720;29;20052;-79
2022/11/06 05:50:33;;;;;;;11.88;4.50;;;;;;;6.40;100.00;100757.38;4924751;29;20088;-80
2022/11/06 05:52:59;;;;;;;10.98;4.78;;;;;;;6.41;100.00;100753.00;4926758;29;20448;-79
2022/11/06 05:55:27;;;;;;;9.35;4.22;;;;;;;6.44;100.00;100757.97;4939639;29;20059;-80
2022/11/06 05:57:54;;;;;;;8.23;4.47;;;;;;;6.47;100.00;100747.31;4947055;29;20051;-79
2022/11/06 06:00:21;;;;;;;10.38;4.85;;;;;;;6.49;100.00;100758.41;4946146;29;20056;-79
2022/11/06 06:02:48;;;;;;;10.60;4.43;;;;;;;6.40;100.00;100752.19;4930905;29;20112;-78
2022/11/06 06:05:14;;;;;;;7.93;4.55;;;;;;;6.39;100.00;100744.50;4928643;29;20087;-79
2022/11/06 06:07:41;;;;;;;5.57;4.10;;;;;;;6.42;100.00;100759.84;4928192;29;20052;-79
2022/11/06 06:10:09;;;;;;;16.67;5.57;;;;;;;6.40;100.00;100748.75;4934641;29;20090;-78
2022/11/06 06:12:38;;;;;;;14.98;5.18;;;;;;;6.41;100.00;100747.81;4946768;29;20075;-78
2022/11/06 06:15:05;;;;;;;12.25;5.40;;;;;;;6.38;100.00;100743.69;4946655;29;20052;-79
2022/11/06 06:17:32;;;;;;;11.70;4.82;;;;;;;6.30;100.00;100741.72;4946829;29;20052;-79
2022/11/06 06:19:59;;;;;;;12.13;6.07;;;;;;;6.20;100.00;100733.00;4940582;29;20075;-79
2022/11/06 06:22:25;;;;;;;12.30;5.60;;;;;;;6.16;100.00;100726.41;4929850;29;20112;-79
2022/11/06 06:24:52;;;;;;;12.25;5.50;;;;;;;6.20;100.00;100727.81;4930721;29;20055;-78
2022/11/06 06:27:19;;;;;;;13.90;5.95;;;;;;;6.17;100.00;100724.66;4928596;29;20119;-78
2022/11/06 06:29:47;;;;;;;14.57;5.85;;;;;;;6.17;100.00;100722.03;4927893;29;20048;-79
2022/11/06 06:32:13;;;;;;;10.57;5.75;;;;;;;6.17;100.00;100727.25;4943997;29;20052;-80
2022/11/06 06:34:40;;;;;;;16.40;5.70;;;;;;;6.14;100.00;100730.94;4947280;29;20040;-78
2022/11/06 06:37:06;;;;;;;13.15;6.40;;;;;;;6.17;100.00;100738.47;4946724;29;20080;-79
2022/11/06 06:39:33;;;;;;;12.13;6.55;;;;;;;6.14;100.00;100738.75;4947024;29;20051;-79
2022/11/06 06:42:00;;;;;;;9.77;5.93;;;;;;;6.15;100.00;100742.13;4946401;29;20126;-78
2022/11/06 06:44:26;;;;;;;18.50;6.88;;;;;;;6.08;100.00;100739.22;4943046;29;20079;-78
2022/11/06 06:46:54;;;;;;;14.52;6.25;;;;;;;6.16;100.00;100743.78;4939268;29;20055;-78
2022/11/06 06:49:21;;;;;;;13.07;5.97;;;;;;;6.13;100.00;100750.06;4943235;29;20083;-77
2022/11/06 06:51:48;;;;;;;13.75;5.88;;;;;;;6.15;100.00;100757.72;4943046;29;20115;-78
2022/11/06 06:54:14;;;;;;;14.23;5.72;;;;;;;6.11;100.00;100756.34;4945088;29;20056;-78
2022/11/06 06:56:41;;;;;;;13.07;6.30;;;;;;;6.12;100.00;100766.63;4940010;29;20055;-79
2022/11/06 06:59:08;;;;;;;11.65;6.18;;;;;;;6.15;100.00;100757.72;4946293;29;20139;-78
2022/11/06 07:01:34;;;;;;;9.30;5.65;;;;;;;6.20;100.00;100761.59;4936111;29;20060;-78
2022/11/06 07:04:02;;;;;;;11.45;5.78;;;;;;;6.28;100.00;100754.00;4927260;29;20159;-78
2022/11/06 07:06:29;;;;;;;10.85;6.28;;;;;;;6.38;100.00;100758.47;4939429;29;20082;-78
2022/11/06 07:08:56;;;;;;;14.68;6.00;;;;;;;6.47;100.00;100757.72;4945490;29;20079;-78
2022/11/06 07:11:23;;;;;;;12.45;6.13;;;;;;;6.62;100.00;100757.25;4943447;29;20412;-78
2022/11/06 07:13:49;;;;;;;12.60;5.78;;;;;;;6.76;100.00;100755.28;4943605;29;20059;-77
2022/11/06 07:16:16;;;;;;;12.82;5.47;;;;;;;6.88;100.00;100751.66;4941671;29;20088;-78
2022/11/06 07:18:42;;;;;;;8.88;6.25;;;;;;;7.10;100.00;100745.44;4944834;29;20460;-79
2022/11/06 07:21:12;;;;;;;14.00;5.75;;;;;;;7.30;100.00;100739.34;4944989;29;20078;-78
2022/11/06 07:23:38;;;;;;;12.68;5.85;;;;;;;7.52;100.00;100728.75;4943162;29;20107;-78
2022/11/06 07:26:06;;;;;;;12.38;5.72;;;;;;;7.78;100.00;100738.63;4944184;29;20040;-78
2022/11/06 07:28:33;;;;;;;9.15;5.38;;;;;;;7.97;100.00;100734.28;4928492;29;20088;-79
2022/11/06 07:31:00;;;;;;;11.45;4.85;;;;;;;8.05;99.38;100741.38;4936581;29;20074;-79
2022/11/06 07:33:27;;;;;;;8.73;4.50;;;;;;;7.93;98.60;100745.94;4948230;29;20055;-78
2022/11/06 07:35:53;;;;;;;6.97;4.43;;;;;;;8.29;97.79;100749.63;4953219;29;20051;-78
2022/11/06 07:38:21;;;;;;;7.55;4.43;;;;;;;8.30;96.76;100753.88;4950980;29;20107;-79
2022/11/06 07:40:48;;;;;;;10.20;5.15;;;;;;;8.48;96.61;100761.88;4949232;29;20071;-78
2022/11/06 07:43:14;;;;;;;10.32;5.00;;;;;;;8.90;95.52;100745.84;4950577;29;20067;-79
2022/11/06 07:45:41;;;;;;;10.98;5.05;;;;;;;9.32;93.49;100756.66;4947558;29;20111;-78
2022/11/06 07:48:08;;;;;;;11.43;5.43;;;;;;;9.36;92.52;100758.00;4931721;29;20056;-80
2022/11/06 07:50:34;;;;;;;8.02;4.50;;;;;;;9.34;92.11;100749.50;4939711;29;20115;-78
2022/11/06 07:53:01;;;;;;;10.27;5.22;;;;;;;9.24;92.69;100749.53;4946208;29;20338;-78
2022/11/06 07:55:29;;;;;;;10.25;4.32;;;;;;;9.60;91.92;100744.41;4946701;29;20079;-78
2022/11/06 07:57:58;;;;;;;8.07;4.63;;;;;;;9.87;91.03;100741.75;4946344;29;20114;-79
2022/11/06 08:00:25;;;;;;;8.48;4.47;;;;;;;9.85;90.71;100737.63;4939000;29;20048;-79
2022/11/06 08:02:52;;;;;;;6.70;4.40;;;;;;;10.16;90.44;100725.81;4927384;29;20079;-79
2022/11/06 08:05:19;;;;;;;9.82;4.18;;;;;;;9.44;91.35;100729.38;4927429;29;20052;-78
2022/11/06 08:07:45;;;;;;;10.48;4.57;;;;;;;9.44;92.25;100734.59;4925086;29;20044;-78
2022/11/06 08:10:12;;;;;;;10.70;4.63;;;;;;;9.39;92.34;100730.78;4938760;29;20047;-78
2022/11/06 08:15:40;;;;;;;12.43;5.20;;;;;;;9.16;92.72;100699.84;4939227;29;20108;-83
2022/11/06 08:18:17;;;;;;;7.72;4.70;;;;;;;9.27;92.89;100722.31;4941612;29;20052;-83
2022/11/06 08:20:44;;;;;;;9.77;5.32;;;;;;;9.07;93.61;100700.69;4942651;29;20066;-84
2022/11/06 08:23:21;;;;;;;10.00;5.20;;;;;;;9.08;93.90;100711.97;4943365;29;20052;-83
2022/11/06 08:26:00;;;;;;;10.95;4.95;;;;;;;9.15;93.85;100715.63;4943527;29;20419;-82
2022/11/06 08:31:32;;;;;;;12.27;5.40;;;;;;;9.19;94.11;100711.78;4924190;29;20092;-84
2022/11/06 08:34:18;;;;;;;8.57;4.60;;;;;;;9.26;93.69;100686.72;4926738;29;20060;-82
2022/11/06 08:37:14;;;;;;;9.07;5.05;;;;;;;9.38;93.43;100710.84;4927432;29;20052;-83
2022/11/06 08:39:50;;;;;;;10.35;5.00;;;;;;;9.64;93.06;100710.00;4907047;29;20048;-83
2022/11/06 08:42:22;;;;;;;15.05;5.70;;;;;;;9.75;92.30;100708.97;4932412;29;20055;-81
2022/11/06 08:51:10;;;;;;;11.95;5.57;;;;;;;10.14;91.25;100706.84;4901056;29;20056;-82
2022/11/06 08:53:58;;;;;;;10.82;5.57;;;;;;;10.03;90.76;100675.69;4924494;29;20083;-82
2022/11/06 08:56:25;;;;;;;10.02;5.10;;;;;;;10.03;91.03;100694.00;4941501;29;20059;-82
2022/11/06 08:58:52;;;;;;;8.10;4.97;;;;;;;9.84;91.06;100671.47;4942450;29;20078;-81
2022/11/06 09:01:22;;;;;;;7.72;5.05;;;;;;;10.20;90.88;100702.84;4935394;29;20059;-79
2022/11/06 09:06:54;;;;;;;15.07;5.22;;;;;;;9.87;90.45;100663.34;4934910;29;20044;-81
2022/11/06 09:09:36;;;;;;;9.48;4.72;;;;;;;9.98;90.25;100657.03;4926827;29;20048;-80
2022/11/06 09:12:46;;;;;;;9.90;4.72;;;;;;;10.14;89.63;100666.81;4920920;29;20056;-80
2022/11/06 09:19:02;;;;;;;;;;;;;;;10.44;88.65;100663.75;4899711;29;20044;-82
2022/11/06 09:21:37;;;;;;;10.32;4.47;;;;;;;10.34;88.80;100650.00;4873806;29;19980;-82
2022/11/06 09:24:15;;;;;;;10.23;4.57;;;;;;;10.51;88.22;100632.56;4921346;29;20062;-82
2022/11/06 09:26:45;;;;;;;9.85;4.80;;;;;;;10.58;87.71;100644.06;4939115;29;20062;-83
2022/11/06 09:29:14;;;;;;;9.15;4.22;;;;;;;10.52;87.60;100611.50;4940063;29;20056;-82
2022/11/06 09:31:42;;;;;;;10.27;4.68;;;;;;;10.64;87.53;100630.34;4927435;29;20058;-82
2022/11/06 09:34:09;;;;;;;11.35;5.22;;;;;;;10.53;87.04;100600.03;4921978;29;20436;-82
2022/11/06 09:36:41;;;;;;;11.90;5.10;;;;;;;10.54;87.48;100606.09;4922083;29;20052;-81
2022/11/06 09:39:29;;;;;;;10.45;5.28;;;;;;;10.65;87.95;100624.16;4921057;29;20059;-82
2022/11/06 09:42:26;;;;;;;10.45;4.82;;;;;;;10.40;88.27;100598.84;4921792;29;20145;-82
2022/11/06 09:45:06;;;;;;;13.60;4.97;;;;;;;10.68;88.02;100605.53;4921802;29;20164;-80
2022/11/06 09:47:41;;;;;;;12.57;5.55;;;;;;;10.83;88.06;100608.38;4940860;29;20121;-81
2022/11/06 09:50:24;;;;;;;7.45;4.78;;;;;;;10.79;87.08;100584.31;4927695;29;20056;-79
2022/11/06 09:52:57;;;;;;;10.20;4.70;;;;;;;11.21;86.68;100579.00;4928950;29;20043;-79
2022/11/06 09:55:34;;;;;;;10.60;4.55;;;;;;;11.25;85.09;100562.00;4927856;29;20471;-78
2022/11/06 09:59:01;;;;;;;11.77;4.40;;;;;;;11.24;84.91;100583.09;4928505;29;20051;-80
2022/11/06 10:02:25;;;;;;;;;;;;;;;;;;;;;
2022/11/06 10:05:09;;;;;;;9.68;4.75;;;;;;;11.33;85.24;100583.94;4938476;29;20060;-82
2022/11/06 10:07:50;;;;;;;9.38;4.07;;;;;;;11.07;84.93;100594.50;4942517;29;20072;-83
2022/11/06 10:10:42;;;;;;;7.45;4.68;;;;;;;11.27;84.29;100590.63;4924591;29;20499;-83
2022/11/06 10:14:11;;;;;;;7.93;4.28;;;;;;;11.53;83.46;100586.06;4921651;29;20055;-83
2022/11/06 10:16:52;;;;;;;10.38;4.00;;;;;;;11.67;83.24;100583.78;4931779;29;20052;-83
2022/11/06 10:26:24;;;;;;;7.32;4.20;;;;;;;11.46;82.78;100558.06;4923610;23;20064;-82
2022/11/06 10:46:15;;;;;;;10.93;4.75;;;;;;;11.10;83.96;100516.47;4736816;29;20069;-81
2022/11/06 10:49:05;;;;;;;;;;;;;;;;;;;;;
2022/11/06 10:52:15;;;;;;;10.05;4.85;;;;;;;10.94;84.43;100496.31;4898119;29;20506;-81
2022/11/06 10:55:44;;;;;;;9.07;5.00;;;;;;;10.87;85.27;100510.22;4907602;29;20060;-82
2022/11/06 10:58:13;;;;;;;8.55;4.97;;;;;;;11.00;85.23;100530.66;4889075;29;20048;-81
2022/11/06 11:00:42;;;;;;;9.15;5.72;;;;;;;10.95;85.03;100510.22;4904541;29;20056;-82
2022/11/06 11:03:34;;;;;;;7.18;4.78;;;;;;;11.15;84.86;100505.50;4903737;29;20052;-82
2022/11/06 11:13:37;;;;;;;11.13;5.53;;;;;;;11.01;85.42;100500.91;4837652;29;20056;-83
2022/11/06 11:16:47;;;;;;;10.52;6.13;;;;;;;10.85;85.15;100478.16;4823196;29;20064;-82
2022/11/06 11:23:04;;;;;;;9.35;5.57;;;;;;;10.82;84.59;100471.44;4844035;29;20121;-82
2022/11/06 11:25:52;;;;;;;8.90;5.68;;;;;;;10.66;85.08;100455.69;4902530;29;20081;-83
2022/11/06 11:41:45;;;;;;;12.50;5.93;;;;;;;10.96;84.63;100469.97;4816730;29;20502;-83
2022/11/06 11:47:50;;;;;;;;;;;;;;;;;;;;;
2022/11/06 11:50:32;;;;;;;14.52;6.00;;;;;;;10.64;84.20;100390.44;4863965;29;20109;-83
2022/11/06 11:53:40;;;;;;;10.20;5.57;;;;;;;10.91;84.88;100417.28;4902604;29;20075;-84
2022/11/06 11:56:57;;;;;;;11.68;5.43;;;;;;;10.71;84.48;100374.91;4905442;29;20092;-85
2022/11/06 11:59:35;;;;;;;13.82;6.20;;;;;;;10.90;84.39;100395.50;4896723;29;20057;-84
2022/11/06 12:02:28;;;;;;;9.32;5.13;;;;;;;10.94;84.22;100396.81;4907608;29;20052;-84
2022/11/06 12:05:09;;;;;;;11.20;5.32;;;;;;;10.88;84.42;100387.00;4908043;29;20117;-84
2022/11/06 12:07:49;;;;;;;9.27;5.53;;;;;;;10.96;84.14;100365.25;4908197;29;20052;-83
2022/11/06 12:13:28;;;;;;;9.02;5.13;;;;;;;10.84;84.40;100319.47;4862234;29;20052;-84
2022/11/06 12:16:08;;;;;;;11.48;5.15;;;;;;;10.91;84.43;100334.31;4904866;29;20052;-83
2022/11/06 12:18:59;;;;;;;10.57;5.53;;;;;;;11.04;84.04;100333.00;4902948;29;20481;-84
2022/11/06 12:29:41;;;;;;;8.00;4.35;;;;;;;11.38;81.76;100319.66;3997780;23;20573;-82
2022/11/06 12:32:39;;;;;;;7.63;4.72;;;;;;;11.49;80.91;100296.53;4918949;29;20078;-83
2022/11/06 12:35:48;;;;;;;11.50;5.13;;;;;;;11.53;80.82;100318.78;4943583;29;20055;-83
2022/11/06 12:38:32;;;;;;;7.18;4.30;;;;;;;11.49;80.49;100296.53;4924818;29;20328;-83
2022/11/06 12:41:50;;;;;;;8.85;4.60;;;;;;;11.60;80.55;100329.41;4922213;29;20538;-84
2022/11/06 12:47:43;;;;;;;8.52;4.32;;;;;;;12.10;79.42;100318.53;4920506;29;20411;-84
2022/11/06 12:50:44;;;;;;;10.25;4.75;;;;;;;12.02;78.82;100294.97;4922448;29;20082;-84
2022/11/06 12:53:40;;;;;;;8.60;4.65;;;;;;;12.41;79.19;100302.75;4916076;29;20048;-83
2022/11/06 13:03:04;;;;;;;7.00;3.75;;;;;;;12.28;76.62;100284.16;4916156;29;20048;-84
2022/11/06 13:05:43;;;;;;;7.10;4.05;;;;;;;12.11;76.93;100270.34;4919734;29;20131;-84
2022/11/06 13:08:31;;;;;;;8.18;4.30;;;;;;;11.93;77.63;100270.59;4920536;29;20239;-84
2022/11/06 13:11:47;;;;;;;8.63;4.60;;;;;;;11.87;77.95;100270.47;4914278;29;20131;-81
2022/11/06 13:14:25;;;;;;;8.85;4.57;;;;;;;11.98;76.87;100264.84;4923059;29;20043;-83
2022/11/06 13:17:09;;;;;;;10.90;4.38;;;;;;;12.15;77.52;100260.31;4923193;29;20048;-82
2022/11/06 13:19:52;;;;;;;7.05;3.33;;;;;;;12.47;73.42;100280.22;4926432;29;20070;-83
2022/11/06 13:25:20;;;;;;;7.22;3.80;;;;;;;12.41;75.65;100275.69;4922079;29;20505;-82
2022/11/06 13:28:01;;;;;;;5.55;4.00;;;;;;;12.27;75.79;100258.91;4920888;29;20075;-83
2022/11/06 13:30:39;;;;;;;9.30;3.70;;;;;;;12.02;75.94;100260.88;4916393;29;20071;-83
2022/11/06 13:33:08;;;;;;;5.93;3.70;;;;;;;12.24;75.85;100288.94;4927644;29;20054;-82
2022/11/06 13:36:01;;;;;;;6.63;3.97;;;;;;;12.03;74.92;100259.09;4931156;29;20052;-84
2022/11/06 13:38:34;;;;;;;8.20;4.05;;;;;;;11.89;75.79;100244.91;4920613;29;20064;-82
2022/11/06 13:41:28;;;;;;;7.22;3.97;;;;;;;11.91;75.81;100264.72;4923312;29;20063;-82
2022/11/06 13:43:59;;;;;;;7.47;3.67;;;;;;;11.93;75.87;100261.94;4922480;29;21108;-82
2022/11/06 13:46:36;;;;;;;7.05;3.80;;;;;;;11.94;76.43;100248.66;4918449;29;20128;-83